CheckWX is a tool to help pilots better visualize weather data.  It is not intended as a substitute for an official pre-flight weather briefing.

08:18:00 UTC

KLMT TAF
Crater Lake-Klamath Regional Airport
Klamath Falls, Oregon, USA
KLMT 140523Z 1406/1506 00000KT P6SM SCT200 FM141200 VRB02KT P6SM BKN140 OVC180

Nov-14@
06:00 UTC

Nov-14 @ 06:00 UTC

Nov-14@
12:00 UTC

Nov-14 @ 12:00 UTC

KLMT 140523Z 1406/1506 00000KT P6SM SCT200
Cloud Levels
  • Scattered at 20,000' AGL

Nov-14@
12:00 UTC

Nov-14 @ 12:00 UTC

Nov-15@
06:00 UTC

Nov-15 @ 06:00 UTC

FM141200 VRB02KT P6SM BKN140 OVC180

From

From Standard forecast or significant change

Wind
  • Variable at 2 KTS
Cloud Levels
  • Broken at 14,000' AGL
  • Overcast at 18,000' AGL